Hlavní strana
METAR-TAF:

METAR-TAF

Letiště :

Luanda, Angola

zeměpisná šířka: 08-51S, zeměpisná délka: 013-14E, výška: 74 m

Aktuální stav počasí

Zpráva byla vytvořena před 1 hodinou a 43 minutami, v 07:00 UTC
vítr z různých směrů 2 kt
Teplota 27°C
Vlhkost vzduchu 79%
Tlak 1008 hPa
Viditelnost 10 km a více
Skoro jasno ve výšce 2000 ft
Oblačno až skoro zataženo ve výšce 7000 ft

METAR: FNLU 030700Z VRB02KT 9999 FEW020 BKN070 27/23 Q1008 NOSIG

Čas: 09:43 (08:43 UTC)

Předpověď počasí

Zpráva byla vytvořena před 3 hodinami a 42 minutami, v 05:01 UTC
Předpověď platná od 03 v 06 UTC do 04 v 12 UTC
Jihovýchodní vítr 8 kt
Viditelnost 10 km a více
Oblačno až skoro zataženo ve výšce 3000 ft
Dočasný
od 03 v 14 UTC do 03 v 16 UTC
Západoseverozápadní vítr 10 kt
Skoro jasno ve výšce 2200 ft
Změna
od 03 v 22 UTC do 03 v 24 UTC
Jižní vítr 6 kt
Viditelnost 10 km a více
Oblačno až skoro zataženo ve výšce 2000 ft

TAF: FNLU 030501Z 0306/0412 14008KT 9999 BKN030 TEMPO 0314/0316 29010KT FEW022 BECMG 0322/0324 18006KT 9999 BKN020

Stav a předpovědi počasí z více než 4 000 letišť (zprávy METAR a TAF).

Červené a žluté tečky na mapě představují dostupné meteorologické stanice.

Když kurzor umístíte na tečku, zobrazí se název stanice.

Pak kliknutím zobrazíte stav a předpověď počasí.

Chcete-li změnit mapu, kliknutím na zelené tlačítko se znaménkem +mapu přiblížíte, kliknutím na zelené tlačítko se znaménkem – mapu oddálíte a kliknutím na zelené šipky přejdete na sousední mapy.


METAR-TAF: